Time;durP1;ratioP1;P1;durP2;ratioP2;P2;SDS_P1;SDS_P2;PMS_P1;PMS_P2;Temp;Humidity;BMP_temperature;BMP_pressure;BME280_temperature;BME280_humidity;BME280_pressure;Samples;Min_cycle;Max_cycle;Signal;HPM_P1;HPM_P2
2022/02/28 00:02:29;;;;;;;13.05;7.53;;;;;;;1.02;100.00;98015.09;5015672;28;20040;-82
2022/02/28 00:04:54;;;;;;;12.65;8.02;;;;;;;1.00;100.00;98009.88;5020160;28;20117;-82
2022/02/28 00:07:20;;;;;;;15.60;7.88;;;;;;;0.96;100.00;98016.06;5015166;28;20097;-81
2022/02/28 00:09:46;;;;;;;13.02;7.68;;;;;;;1.01;100.00;98021.28;5015903;28;20036;-82
2022/02/28 00:12:11;;;;;;;13.20;7.90;;;;;;;0.94;100.00;98017.88;5015721;28;20136;-82
2022/02/28 00:14:37;;;;;;;10.95;7.00;;;;;;;1.02;100.00;98021.22;5019518;28;20492;-83
2022/02/28 00:17:03;;;;;;;12.18;7.50;;;;;;;1.09;100.00;98014.97;5044858;28;20456;-82
2022/02/28 00:19:29;;;;;;;13.45;8.15;;;;;;;1.18;100.00;98011.31;5034373;28;20428;-81
2022/02/28 00:21:54;;;;;;;11.52;6.78;;;;;;;1.13;100.00;98005.25;5030964;28;20030;-81
2022/02/28 00:24:20;;;;;;;9.70;6.68;;;;;;;1.15;100.00;98011.34;5017638;28;20039;-81
2022/02/28 00:26:45;;;;;;;12.07;6.90;;;;;;;1.17;100.00;98014.81;5020108;28;20036;-81
2022/02/28 00:29:11;;;;;;;10.45;6.95;;;;;;;1.11;100.00;98007.03;5027179;28;20036;-82
2022/02/28 00:31:36;;;;;;;10.93;7.25;;;;;;;1.07;100.00;97994.84;5034601;28;20474;-82
2022/02/28 00:34:02;;;;;;;11.55;7.30;;;;;;;1.18;100.00;98006.03;5030994;28;20036;-83
2022/02/28 00:36:28;;;;;;;9.10;6.72;;;;;;;1.11;100.00;98004.41;5031168;28;20435;-81
2022/02/28 00:38:54;;;;;;;8.85;5.97;;;;;;;1.15;100.00;97999.94;5051746;28;20463;-82
2022/02/28 00:41:19;;;;;;;9.43;6.07;;;;;;;1.17;100.00;98001.66;5030757;28;20112;-81
2022/02/28 00:43:45;;;;;;;11.80;7.40;;;;;;;1.23;100.00;97996.28;5018608;28;20037;-81
2022/02/28 00:46:11;;;;;;;9.25;6.45;;;;;;;1.15;100.00;97998.19;5030648;28;20028;-82
2022/02/28 00:48:36;;;;;;;10.13;6.60;;;;;;;1.16;100.00;97992.03;5026170;28;20033;-81
2022/02/28 00:51:03;;;;;;;14.75;8.77;;;;;;;1.32;100.00;98003.16;5008132;28;20342;-83
2022/02/28 00:53:29;;;;;;;17.05;9.07;;;;;;;1.24;100.00;97987.47;5024151;28;20095;-82
2022/02/28 00:55:54;;;;;;;14.52;8.05;;;;;;;1.07;100.00;97986.94;5022034;28;20100;-82
2022/02/28 00:58:21;;;;;;;13.80;7.47;;;;;;;1.10;100.00;97981.59;5031925;28;20067;-83
2022/02/28 01:00:47;;;;;;;11.80;7.15;;;;;;;1.01;100.00;97989.66;5033975;28;20021;-79
2022/02/28 01:03:12;;;;;;;9.98;6.47;;;;;;;1.03;100.00;97990.50;5019687;28;20026;-82
2022/02/28 01:05:38;;;;;;;10.70;7.43;;;;;;;0.94;100.00;97977.50;5029890;28;20047;-82
2022/02/28 01:08:04;;;;;;;11.35;7.03;;;;;;;0.93;100.00;97974.00;5024715;28;20021;-83
2022/02/28 01:10:29;;;;;;;13.55;7.68;;;;;;;0.89;100.00;97971.44;5027669;28;20031;-82
2022/02/28 01:12:55;;;;;;;13.45;7.68;;;;;;;0.87;100.00;97973.22;5017600;28;20041;-81
2022/02/28 01:15:21;;;;;;;16.58;7.95;;;;;;;0.92;100.00;97968.75;5030785;28;20058;-82
2022/02/28 01:17:47;;;;;;;12.50;7.45;;;;;;;0.90;100.00;97968.78;5006265;28;20118;-82
2022/02/28 01:20:14;;;;;;;16.40;9.25;;;;;;;0.96;100.00;97963.41;5025393;28;20167;-83
2022/02/28 01:22:40;;;;;;;15.18;7.35;;;;;;;1.03;100.00;97959.78;5031916;28;20133;-83
2022/02/28 01:25:07;;;;;;;16.20;8.30;;;;;;;1.17;100.00;97967.41;5012715;28;20493;-82
2022/02/28 01:27:33;;;;;;;15.15;7.85;;;;;;;1.19;100.00;97959.50;5027852;28;20482;-83
2022/02/28 01:29:58;;;;;;;10.32;7.30;;;;;;;1.22;100.00;97968.22;5025378;28;20055;-82
2022/02/28 01:32:24;;;;;;;15.07;7.72;;;;;;;1.21;100.00;97962.97;5025797;28;20024;-82
2022/02/28 01:34:50;;;;;;;15.98;8.07;;;;;;;1.12;100.00;97956.09;5026514;28;20029;-84
2022/02/28 01:37:16;;;;;;;17.40;8.48;;;;;;;1.09;100.00;97953.53;5020800;28;20025;-82
2022/02/28 01:39:44;;;;;;;17.42;9.13;;;;;;;1.03;100.00;97956.25;5029687;28;20065;-82
2022/02/28 01:42:11;;;;;;;20.95;8.98;;;;;;;1.15;100.00;97955.16;5033931;28;20017;-83
2022/02/28 01:44:36;;;;;;;17.98;9.00;;;;;;;1.17;100.00;97962.13;5021475;28;20531;-83
2022/02/28 01:47:02;;;;;;;20.60;8.70;;;;;;;1.13;100.00;97954.34;5045693;28;20056;-83
2022/02/28 01:49:28;;;;;;;16.05;8.18;;;;;;;0.99;100.00;97951.94;5026434;28;20065;-82
2022/02/28 01:51:53;;;;;;;13.52;7.13;;;;;;;1.00;100.00;97957.19;5033019;28;20086;-83
2022/02/28 01:54:19;;;;;;;13.68;6.60;;;;;;;0.98;100.00;97966.03;5013155;28;20033;-83
2022/02/28 01:56:45;;;;;;;10.70;6.05;;;;;;;0.91;100.00;97959.13;5031661;28;20116;-83
2022/02/28 01:59:10;;;;;;;9.30;5.90;;;;;;;0.87;100.00;97947.75;5038673;28;20037;-83
2022/02/28 02:01:36;;;;;;;11.18;5.78;;;;;;;0.84;100.00;97942.56;5030189;28;20047;-82
2022/02/28 02:04:01;;;;;;;13.65;6.97;;;;;;;0.84;100.00;97946.94;5041743;28;20029;-82
2022/02/28 02:06:27;;;;;;;13.02;6.82;;;;;;;0.92;100.00;97952.97;5030887;28;20492;-82
2022/02/28 02:08:53;;;;;;;8.75;6.15;;;;;;;0.94;100.00;97961.69;5025787;28;20031;-82
2022/02/28 02:11:19;;;;;;;9.75;5.50;;;;;;;0.98;100.00;97953.72;5017999;28;20025;-82
2022/02/28 02:13:46;;;;;;;10.88;6.47;;;;;;;0.93;100.00;97955.56;5042025;28;20040;-83
2022/02/28 02:16:12;;;;;;;10.07;6.57;;;;;;;1.02;100.00;97958.03;5034373;28;20043;-83
2022/02/28 02:18:37;;;;;;;11.85;7.40;;;;;;;1.01;100.00;97952.81;5028264;28;20029;-83
2022/02/28 02:21:03;;;;;;;10.70;6.35;;;;;;;0.95;100.00;97951.13;5021926;28;20017;-83
2022/02/28 02:23:29;;;;;;;10.55;6.80;;;;;;;0.94;100.00;97948.53;5013734;28;20085;-82
2022/02/28 02:25:57;;;;;;;11.93;6.65;;;;;;;0.96;100.00;97952.88;5021425;28;20028;-82
2022/02/28 02:28:23;;;;;;;11.32;7.10;;;;;;;0.95;100.00;97950.28;5030400;28;20390;-83
2022/02/28 02:30:53;;;;;;;9.90;6.45;;;;;;;1.04;100.00;97948.34;5010353;28;20061;-83
2022/02/28 02:33:20;;;;;;;8.50;5.75;;;;;;;0.86;100.00;97946.03;5004519;28;20128;-82
2022/02/28 02:35:57;;;;;;;9.93;6.15;;;;;;;0.88;100.00;97952.16;5013310;28;20425;-82
2022/02/28 02:38:24;;;;;;;10.90;6.30;;;;;;;0.93;100.00;97937.13;5013027;28;20021;-82
2022/02/28 02:40:50;;;;;;;14.90;7.05;;;;;;;1.01;100.00;97940.50;5028606;28;20108;-82
2022/02/28 02:43:16;;;;;;;12.50;6.78;;;;;;;1.04;100.00;97947.47;5016553;28;20033;-83
2022/02/28 02:45:42;;;;;;;11.15;6.00;;;;;;;1.03;100.00;97943.97;5033440;28;20094;-83
2022/02/28 02:48:17;;;;;;;11.15;5.63;;;;;;;1.04;100.00;97944.84;5024876;28;20026;-83
2022/02/28 02:50:43;;;;;;;11.20;6.75;;;;;;;0.98;100.00;97934.44;5033138;28;20029;-84
2022/02/28 02:53:09;;;;;;;12.38;7.10;;;;;;;0.91;100.00;97945.94;5024318;28;20448;-82
2022/02/28 02:55:35;;;;;;;16.05;7.57;;;;;;;0.86;100.00;97950.44;5017862;28;20020;-82
2022/02/28 02:58:00;;;;;;;12.80;6.25;;;;;;;0.76;100.00;97949.72;5025685;28;20493;-83
2022/02/28 03:00:27;;;;;;;10.45;6.25;;;;;;;0.80;100.00;97942.66;5032732;28;20021;-83
2022/02/28 03:02:52;;;;;;;9.48;5.90;;;;;;;0.70;100.00;97948.97;5050246;28;20025;-83
2022/02/28 03:05:18;;;;;;;10.98;6.13;;;;;;;0.54;100.00;97928.16;5006920;28;20068;-83
2022/02/28 03:07:44;;;;;;;11.73;6.65;;;;;;;0.63;100.00;97944.69;5013491;28;20036;-83
2022/02/28 03:10:09;;;;;;;10.13;6.18;;;;;;;0.62;100.00;97945.56;5045976;28;20037;-83
2022/02/28 03:12:35;;;;;;;17.48;7.22;;;;;;;0.62;100.00;97935.03;5039027;28;20065;-83
2022/02/28 03:15:02;;;;;;;11.45;6.80;;;;;;;0.66;100.00;97944.63;5022171;28;20037;-82
2022/02/28 03:17:27;;;;;;;11.50;5.85;;;;;;;0.64;100.00;97943.78;5022190;28;20097;-82
2022/02/28 03:19:53;;;;;;;11.65;7.18;;;;;;;0.69;100.00;97942.81;5040212;28;20059;-83
2022/02/28 03:22:19;;;;;;;11.27;6.65;;;;;;;0.67;100.00;97939.34;5030646;28;20063;-82
2022/02/28 03:24:44;;;;;;;9.05;5.80;;;;;;;0.58;100.00;97933.38;5025193;28;20032;-82
2022/02/28 03:27:11;;;;;;;11.18;6.40;;;;;;;0.64;100.00;97944.66;5031968;28;20052;-83
2022/02/28 03:29:37;;;;;;;9.10;5.93;;;;;;;0.51;100.00;97929.97;5036978;28;20036;-83
2022/02/28 03:32:02;;;;;;;9.45;6.20;;;;;;;0.48;100.00;97928.25;5028640;28;20032;-82
2022/02/28 03:34:29;;;;;;;10.95;6.07;;;;;;;0.46;100.00;97934.44;5027811;28;20044;-83
2022/02/28 03:36:55;;;;;;;14.30;7.50;;;;;;;0.48;100.00;97941.41;5034036;28;20066;-82
2022/02/28 03:39:22;;;;;;;12.00;6.55;;;;;;;0.43;100.00;97926.59;5022342;28;20032;-83
2022/02/28 03:41:48;;;;;;;11.98;6.93;;;;;;;0.43;100.00;97943.22;5022803;28;20418;-82
2022/02/28 03:44:14;;;;;;;11.27;6.40;;;;;;;0.42;100.00;97935.38;5020175;28;20037;-84
2022/02/28 03:46:39;;;;;;;10.27;6.72;;;;;;;0.45;100.00;97941.47;5031132;28;20024;-83
2022/02/28 03:49:05;;;;;;;11.23;6.63;;;;;;;0.46;100.00;97931.81;5056598;28;20028;-83
2022/02/28 03:51:30;;;;;;;10.38;6.50;;;;;;;0.61;100.00;97949.97;5029443;28;20489;-83
2022/02/28 03:53:56;;;;;;;10.23;6.18;;;;;;;0.62;100.00;97948.19;5042097;28;20031;-83
2022/02/28 03:56:22;;;;;;;11.48;6.90;;;;;;;0.57;100.00;97948.28;5031075;28;20117;-81
2022/02/28 03:58:47;;;;;;;15.55;7.90;;;;;;;0.65;100.00;97935.84;5020020;28;20102;-83
2022/02/28 04:01:13;;;;;;;10.80;6.50;;;;;;;0.76;100.00;97948.84;5028012;28;20029;-83
2022/02/28 04:03:39;;;;;;;8.90;5.78;;;;;;;0.76;100.00;97939.19;5030802;28;20397;-84
2022/02/28 04:06:05;;;;;;;9.15;6.50;;;;;;;0.77;100.00;97950.59;5033468;28;20055;-84
2022/02/28 04:08:31;;;;;;;10.98;7.18;;;;;;;0.70;100.00;97948.97;5027645;28;20037;-84
2022/02/28 04:10:56;;;;;;;13.32;8.13;;;;;;;0.73;100.00;97949.78;5032907;28;20031;-84
2022/02/28 04:13:22;;;;;;;13.82;7.68;;;;;;;0.68;100.00;97945.50;5019044;28;20080;-83
2022/02/28 04:15:47;;;;;;;13.52;8.00;;;;;;;0.53;100.00;97921.16;5016492;28;20033;-84
2022/02/28 04:18:13;;;;;;;12.20;6.90;;;;;;;0.71;100.00;97943.66;5024815;28;20084;-84
2022/02/28 04:20:39;;;;;;;16.38;8.65;;;;;;;0.69;100.00;97941.94;5016826;28;20033;-84
2022/02/28 04:23:05;;;;;;;23.10;10.80;;;;;;;0.64;100.00;97949.94;5021950;28;20411;-83
2022/02/28 04:25:30;;;;;;;26.27;13.48;;;;;;;0.69;100.00;97952.47;5016638;28;20342;-82
2022/02/28 04:27:56;;;;;;;25.92;13.30;;;;;;;0.71;100.00;97942.81;5007057;28;20030;-83
2022/02/28 04:30:21;;;;;;;26.10;13.82;;;;;;;0.72;100.00;97949.78;5016203;28;20493;-83
2022/02/28 04:32:47;;;;;;;25.25;13.98;;;;;;;0.62;100.00;97946.44;5035430;28;20404;-83
2022/02/28 04:35:12;;;;;;;26.88;14.70;;;;;;;0.74;100.00;97955.91;5022176;28;20504;-83
2022/02/28 04:37:38;;;;;;;26.65;14.65;;;;;;;0.70;100.00;97948.97;5016310;28;20108;-83
2022/02/28 04:40:05;;;;;;;22.40;12.90;;;;;;;0.74;100.00;97955.91;5020988;28;20124;-83
2022/02/28 04:42:30;;;;;;;24.05;13.27;;;;;;;0.76;100.00;97960.25;5052290;28;20028;-83
2022/02/28 04:44:56;;;;;;;25.40;14.63;;;;;;;0.62;100.00;97945.56;5004341;28;20441;-85
2022/02/28 04:47:22;;;;;;;23.17;14.13;;;;;;;0.77;100.00;97940.06;5037490;28;20037;-83
2022/02/28 04:49:48;;;;;;;21.95;13.10;;;;;;;0.82;100.00;97948.75;5025878;28;20059;-83
2022/02/28 04:52:14;;;;;;;28.05;15.60;;;;;;;0.85;100.00;97961.84;5027359;28;20037;-82
2022/02/28 04:54:39;;;;;;;24.60;14.40;;;;;;;0.91;100.00;97962.63;5018521;28;20048;-83
2022/02/28 04:57:14;;;;;;;19.70;13.05;;;;;;;0.87;100.00;97962.69;5022682;28;20033;-85
2022/02/28 04:59:41;;;;;;;24.77;13.00;;;;;;;0.82;100.00;97954.88;5025413;28;20044;-83
2022/02/28 05:02:07;;;;;;;24.88;13.82;;;;;;;0.78;100.00;97970.75;5050093;28;20031;-81
2022/02/28 05:04:32;;;;;;;22.27;12.25;;;;;;;0.78;100.00;97957.59;5008793;28;20025;-84
2022/02/28 05:06:58;;;;;;;21.60;12.13;;;;;;;0.81;100.00;97960.16;5004141;28;20037;-82
2022/02/28 05:09:23;;;;;;;18.77;11.25;;;;;;;0.78;100.00;97961.09;5019843;28;20052;-83
2022/02/28 05:11:49;;;;;;;22.80;12.35;;;;;;;0.97;100.00;97978.31;5043736;28;20068;-82
2022/02/28 05:14:15;;;;;;;24.35;13.77;;;;;;;0.90;100.00;97970.53;5017590;28;20033;-82
2022/02/28 05:16:41;;;;;;;29.20;16.50;;;;;;;0.92;100.00;97981.94;5033807;28;20032;-85
2022/02/28 05:19:07;;;;;;;23.52;14.13;;;;;;;1.01;100.00;97990.53;5027950;28;20025;-87
2022/02/28 05:21:35;;;;;;;30.70;15.07;;;;;;;0.97;100.00;97977.44;5019655;28;20107;-82
2022/02/28 05:24:01;;;;;;;37.83;20.15;;;;;;;1.11;100.00;97990.38;5018332;28;20112;-83
2022/02/28 05:26:26;;;;;;;40.15;20.25;;;;;;;1.14;100.00;97993.81;5036489;28;20024;-82
2022/02/28 05:28:52;;;;;;;48.88;25.52;;;;;;;1.17;100.00;97991.13;5038365;28;20630;-83
2022/02/28 05:31:17;;;;;;;45.20;25.02;;;;;;;1.17;100.00;97998.19;5051317;28;20765;-84
2022/02/28 05:33:43;;;;;;;54.50;26.92;;;;;;;1.23;100.00;98003.34;5049071;28;20016;-84
2022/02/28 05:36:09;;;;;;;36.67;20.45;;;;;;;1.33;100.00;98005.75;5025668;28;20021;-83
2022/02/28 05:38:34;;;;;;;41.90;23.20;;;;;;;1.34;100.00;98017.19;5036701;28;20048;-81
2022/02/28 05:41:00;;;;;;;48.25;27.00;;;;;;;1.29;100.00;98009.38;5024913;28;20028;-82
2022/02/28 05:43:26;;;;;;;50.63;28.13;;;;;;;1.39;100.00;98008.28;5028897;28;20376;-84
2022/02/28 05:45:51;;;;;;;38.17;20.63;;;;;;;1.23;100.00;97993.63;5039146;28;20037;-83
2022/02/28 05:48:17;;;;;;;28.80;16.95;;;;;;;1.32;100.00;98014.59;5027893;28;20028;-83
2022/02/28 05:50:43;;;;;;;21.10;12.20;;;;;;;1.39;100.00;98020.59;5031320;28;20030;-83
2022/02/28 05:53:08;;;;;;;12.50;6.97;;;;;;;1.34;100.00;98010.16;5030824;28;20095;-82
2022/02/28 05:55:36;;;;;;;30.38;16.63;;;;;;;1.29;100.00;98006.72;5020359;28;20090;-83
2022/02/28 05:58:02;;;;;;;44.47;23.48;;;;;;;1.40;100.00;98014.44;5026035;28;20036;-84
2022/02/28 06:00:28;;;;;;;44.42;22.35;;;;;;;1.46;100.00;98016.94;5033672;28;20024;-83
2022/02/28 06:02:54;;;;;;;55.83;27.23;;;;;;;1.60;100.00;98013.16;5021162;28;20033;-83
2022/02/28 06:05:19;;;;;;;52.08;27.00;;;;;;;1.79;100.00;98015.41;5027021;28;20420;-82
2022/02/28 06:07:46;;;;;;;46.42;25.63;;;;;;;1.60;100.00;97999.97;5023871;28;20029;-82
2022/02/28 06:10:12;;;;;;;46.20;24.90;;;;;;;1.64;100.00;98014.84;5024111;28;20024;-82
2022/02/28 06:12:37;;;;;;;54.53;29.48;;;;;;;1.66;100.00;98006.91;5020490;28;20482;-83
2022/02/28 06:15:04;;;;;;;42.60;24.50;;;;;;;1.80;100.00;98018.03;5022152;28;20067;-83
2022/02/28 06:17:29;;;;;;;40.33;22.02;;;;;;;1.92;100.00;98016.91;5020907;28;20075;-83
2022/02/28 06:19:55;;;;;;;31.92;19.17;;;;;;;1.93;100.00;98008.13;5029254;28;20531;-83
2022/02/28 06:22:21;;;;;;;22.52;13.13;;;;;;;2.05;100.00;98019.28;5027733;28;20037;-81
2022/02/28 06:24:46;;;;;;;24.17;13.27;;;;;;;1.95;100.00;98008.94;5026474;28;20033;-83
2022/02/28 06:27:12;;;;;;;33.22;18.70;;;;;;;1.97;100.00;98013.28;5021949;28;20032;-83
2022/02/28 06:29:40;;;;;;;29.02;16.63;;;;;;;2.06;100.00;98014.88;5033580;28;20029;-82
2022/02/28 06:32:06;;;;;;;29.27;16.70;;;;;;;2.10;100.00;98006.00;5021590;28;20037;-84
2022/02/28 06:34:32;;;;;;;29.50;17.23;;;;;;;1.93;100.00;98013.41;5017648;28;20177;-82
2022/02/28 06:36:58;;;;;;;29.85;17.08;;;;;;;2.13;100.00;98019.13;5034195;28;20079;-82
2022/02/28 06:39:25;;;;;;;27.58;15.55;;;;;;;2.08;100.00;98011.31;5029875;28;20096;-83
2022/02/28 06:41:51;;;;;;;39.00;21.42;;;;;;;2.01;100.00;98011.47;5017499;28;20017;-84
2022/02/28 06:44:17;;;;;;;28.20;14.30;;;;;;;1.94;100.00;98005.44;5017522;28;20039;-83
2022/02/28 06:46:42;;;;;;;20.52;13.60;;;;;;;2.08;100.00;98019.22;5037732;28;20033;-83
2022/02/28 06:49:08;;;;;;;22.02;12.70;;;;;;;2.08;100.00;98002.53;5014334;28;20474;-83
2022/02/28 06:51:33;;;;;;;33.72;13.93;;;;;;;2.30;100.00;98017.00;5017622;28;20033;-83
2022/02/28 06:53:59;;;;;;;24.35;14.88;;;;;;;2.41;100.00;98009.69;5017223;28;20033;-83
2022/02/28 06:56:24;;;;;;;28.10;16.77;;;;;;;2.53;100.00;98012.06;5025598;28;20033;-82
2022/02/28 06:58:50;;;;;;;24.05;13.73;;;;;;;2.48;100.00;98021.88;5025862;28;20029;-82
2022/02/28 07:01:16;;;;;;;30.25;16.17;;;;;;;2.57;100.00;98016.38;5021644;28;20032;-83
2022/02/28 07:03:43;;;;;;;24.63;13.65;;;;;;;2.57;100.00;98024.28;5045550;28;20025;-83
2022/02/28 07:06:11;;;;;;;22.92;12.35;;;;;;;2.65;100.00;98022.34;5028640;28;20021;-82
2022/02/28 07:08:38;;;;;;;24.95;14.07;;;;;;;2.72;100.00;98016.03;5026110;28;20400;-83
2022/02/28 07:11:03;;;;;;;31.20;15.43;;;;;;;2.68;100.00;98019.63;5035165;28;20024;-83
2022/02/28 07:13:31;;;;;;;31.73;16.88;;;;;;;2.84;100.00;98029.81;5028641;28;20265;-83
2022/02/28 07:15:57;;;;;;;35.20;19.00;;;;;;;2.72;100.00;98023.94;5039436;28;20040;-82
2022/02/28 07:18:22;;;;;;;59.53;26.17;;;;;;;2.74;100.00;98016.84;5039966;28;20032;-83
2022/02/28 07:20:48;;;;;;;44.10;21.05;;;;;;;2.73;100.00;98020.41;5066444;28;20021;-82
2022/02/28 07:23:13;;;;;;;30.50;16.65;;;;;;;2.74;100.00;98013.31;5017239;28;20060;-83
2022/02/28 07:25:39;;;;;;;32.35;17.05;;;;;;;2.89;100.00;98023.53;5029414;28;20115;-84
2022/02/28 07:28:05;;;;;;;27.88;14.63;;;;;;;3.10;100.00;98027.44;5027454;28;20434;-84
2022/02/28 07:30:30;;;;;;;26.75;14.88;;;;;;;2.97;100.00;98032.16;5048471;28;20032;-84
2022/02/28 07:32:56;;;;;;;26.83;14.73;;;;;;;3.02;100.00;98016.19;5019993;28;20353;-83
2022/02/28 07:35:21;;;;;;;29.67;16.70;;;;;;;2.90;100.00;98021.75;5024517;28;20029;-83
2022/02/28 07:37:47;;;;;;;25.73;13.48;;;;;;;2.75;100.00;98015.06;5049258;28;20451;-83
2022/02/28 07:40:13;;;;;;;31.25;16.15;;;;;;;2.86;100.00;98020.97;5030409;28;20025;-84
2022/02/28 07:42:39;;;;;;;25.30;13.45;;;;;;;3.07;100.00;98032.81;5025809;28;20115;-83
2022/02/28 07:45:07;;;;;;;25.45;13.55;;;;;;;3.06;100.00;98034.56;5024866;28;20117;-82
2022/02/28 07:47:32;;;;;;;27.08;13.68;;;;;;;3.12;100.00;98030.91;5035612;28;20439;-84
2022/02/28 07:49:58;;;;;;;23.75;13.18;;;;;;;3.36;100.00;98043.50;5031859;28;20028;-83
2022/02/28 07:52:24;;;;;;;25.40;13.82;;;;;;;3.46;100.00;98029.16;5035443;28;20042;-83
2022/02/28 07:54:49;;;;;;;40.92;18.17;;;;;;;3.34;100.00;98039.16;5026939;28;20408;-83
2022/02/28 07:57:15;;;;;;;37.95;18.52;;;;;;;3.42;100.00;98031.91;5039486;28;20039;-83
2022/02/28 07:59:41;;;;;;;28.90;14.85;;;;;;;3.58;100.00;98027.94;5020611;28;20086;-84
2022/02/28 08:02:07;;;;;;;38.88;17.38;;;;;;;3.76;100.00;98038.91;5024153;28;20499;-84
2022/02/28 08:04:39;;;;;;;38.83;17.90;;;;;;;3.91;100.00;98034.13;5034064;28;20408;-85
2022/02/28 08:07:05;;;;;;;30.08;16.98;;;;;;;3.98;100.00;98023.31;5036762;28;20060;-84
2022/02/28 08:09:31;;;;;;;32.40;16.85;;;;;;;4.22;98.95;98029.66;5028129;28;20029;-84
2022/02/28 08:11:57;;;;;;;22.10;12.70;;;;;;;4.36;97.32;98033.66;5036513;28;20048;-83
2022/02/28 08:14:24;;;;;;;28.10;13.60;;;;;;;4.67;96.07;98041.56;5022016;28;20559;-83
2022/02/28 08:16:49;;;;;;;41.55;19.00;;;;;;;4.85;92.07;98035.69;5029804;28;20035;-83
2022/02/28 08:19:16;;;;;;;48.85;21.75;;;;;;;4.87;90.66;98039.13;5033331;28;20028;-85
2022/02/28 08:21:41;;;;;;;23.25;11.95;;;;;;;4.90;91.50;98049.66;5029857;28;20435;-85
2022/02/28 08:24:07;;;;;;;25.65;14.00;;;;;;;4.95;91.08;98043.34;5049999;28;20013;-84
2022/02/28 08:26:33;;;;;;;26.70;14.13;;;;;;;4.80;89.56;98048.19;5021853;28;20025;-74
2022/02/28 08:28:58;;;;;;;26.05;14.52;;;;;;;4.71;90.33;98043.19;5035374;28;20036;-74
2022/02/28 08:31:24;;;;;;;32.55;15.02;;;;;;;4.79;90.59;98040.31;5035043;28;20166;-72
2022/02/28 08:33:49;;;;;;;25.95;13.02;;;;;;;4.90;90.12;98028.44;5035816;28;20028;-84
2022/02/28 08:36:15;;;;;;;31.25;13.98;;;;;;;4.83;90.79;98037.50;5021339;28;20185;-83
2022/02/28 08:38:40;;;;;;;31.75;17.50;;;;;;;4.95;91.13;98040.69;5023692;28;20102;-84
2022/02/28 08:41:06;;;;;;;24.65;13.38;;;;;;;4.95;90.21;98035.41;5036389;28;20170;-84
2022/02/28 08:43:31;;;;;;;18.60;11.10;;;;;;;5.14;87.86;98041.81;5031656;28;20165;-83
2022/02/28 08:45:57;;;;;;;25.88;14.90;;;;;;;5.07;88.74;98046.47;5029482;28;20053;-83
2022/02/28 08:48:23;;;;;;;19.50;11.45;;;;;;;4.77;89.96;98040.34;5031239;28;20028;-83
2022/02/28 08:50:49;;;;;;;20.90;12.27;;;;;;;4.92;89.76;98045.16;5035711;28;20501;-83
2022/02/28 08:53:14;;;;;;;20.02;12.15;;;;;;;5.14;91.06;98053.28;5025127;28;20028;-84
2022/02/28 08:55:40;;;;;;;51.47;23.40;;;;;;;5.00;89.07;98046.72;5015710;28;20063;-84
2022/02/28 08:58:06;;;;;;;44.28;20.80;;;;;;;4.97;88.12;98054.75;5019469;28;20094;-84
2022/02/28 09:00:31;;;;;;;36.13;16.88;;;;;;;4.65;91.42;98058.38;5032136;28;20028;-84
2022/02/28 09:02:57;;;;;;;36.33;19.88;;;;;;;4.69;90.57;98071.50;5026984;28;20040;-84
2022/02/28 09:05:22;;;;;;;28.13;14.82;;;;;;;4.44;94.76;98059.91;5030683;28;20127;-84
2022/02/28 09:07:48;;;;;;;75.05;36.38;;;;;;;4.32;94.22;98065.56;5027009;28;20033;-84
2022/02/28 09:10:14;;;;;;;47.92;23.90;;;;;;;4.20;93.95;98060.63;5040854;28;20530;-84
2022/02/28 09:12:40;;;;;;;30.50;16.45;;;;;;;4.14;94.10;98055.50;5014772;28;20048;-84
2022/02/28 09:15:07;;;;;;;40.72;19.90;;;;;;;3.91;96.58;98064.06;5031823;28;20106;-84
2022/02/28 09:17:33;;;;;;;11.00;6.60;;;;;;;3.54;97.01;98065.94;5021054;28;20031;-84
2022/02/28 09:20:00;;;;;;;9.02;5.10;;;;;;;3.32;98.12;98068.31;5029362;28;20032;-83
2022/02/28 09:22:25;;;;;;;10.15;5.22;;;;;;;2.88;99.49;98072.00;5024047;28;20032;-82
2022/02/28 09:24:51;;;;;;;11.90;5.28;;;;;;;2.80;99.98;98078.38;5023625;28;20021;-84
2022/02/28 09:27:16;;;;;;;8.32;4.05;;;;;;;2.65;98.47;98061.06;5035233;28;20063;-84
2022/02/28 09:29:42;;;;;;;9.90;5.03;;;;;;;2.89;98.62;98078.16;5027295;28;20446;-84
2022/02/28 09:32:08;;;;;;;10.50;6.00;;;;;;;3.09;99.92;98089.13;5024126;28;20119;-84
2022/02/28 09:34:34;;;;;;;11.38;5.03;;;;;;;3.06;97.79;98081.25;5049189;28;20071;-84
2022/02/28 09:37:00;;;;;;;7.60;4.68;;;;;;;2.99;96.56;98084.94;5019162;28;20180;-84
2022/02/28 09:39:26;;;;;;;10.15;5.13;;;;;;;2.97;95.05;98084.13;5032129;28;20066;-82
2022/02/28 09:41:53;;;;;;;7.97;4.63;;;;;;;2.86;95.39;98084.34;5024584;28;20024;-83
2022/02/28 09:44:21;;;;;;;7.47;4.75;;;;;;;2.91;95.31;98073.69;5025240;28;20025;-83
2022/02/28 09:46:47;;;;;;;9.15;4.78;;;;;;;2.95;96.00;98093.88;5020022;28;20098;-84
2022/02/28 09:49:13;;;;;;;9.55;4.32;;;;;;;3.12;95.41;98089.03;5020437;28;20036;-83
2022/02/28 09:51:38;;;;;;;7.68;4.82;;;;;;;3.20;92.14;98095.00;5020991;28;20384;-83
2022/02/28 09:54:04;;;;;;;11.85;5.00;;;;;;;3.33;91.38;98092.94;5029605;28;20119;-84
2022/02/28 09:56:30;;;;;;;9.25;5.45;;;;;;;3.28;90.23;98093.06;5046557;28;20101;-83
2022/02/28 09:58:56;;;;;;;14.80;7.43;;;;;;;3.58;91.27;98097.59;5026230;28;20090;-85
2022/02/28 10:01:22;;;;;;;13.35;7.88;;;;;;;3.83;91.37;98103.97;5032651;28;20035;-83
2022/02/28 10:03:47;;;;;;;15.45;7.28;;;;;;;3.80;91.19;98101.41;5021365;28;20028;-85
2022/02/28 10:06:14;;;;;;;9.13;6.55;;;;;;;3.84;92.12;98097.75;5026297;28;20508;-84
2022/02/28 10:08:46;;;;;;;12.73;7.10;;;;;;;3.92;93.02;98096.69;5020955;28;20031;-85
2022/02/28 10:11:47;;;;;;;14.07;7.78;;;;;;;4.01;93.55;98104.38;5026446;28;20029;-85
2022/02/28 10:14:13;;;;;;;21.83;10.85;;;;;;;3.90;93.77;98098.53;4933078;29;20201;-85
2022/02/28 10:16:42;;;;;;;9.65;5.65;;;;;;;3.90;90.05;98102.03;4996289;28;20513;-85
2022/02/28 10:19:15;;;;;;;11.25;5.05;;;;;;;3.92;91.64;98094.03;5051745;28;20036;-85
2022/02/28 10:21:52;;;;;;;8.10;4.90;;;;;;;3.97;92.84;98085.06;5032022;28;20408;-85
2022/02/28 10:24:29;;;;;;;10.60;5.47;;;;;;;3.98;92.57;98075.34;5020609;28;20428;-85
2022/02/28 10:26:57;;;;;;;20.73;8.70;;;;;;;4.02;91.46;98077.03;5021054;28;20021;-84
2022/02/28 10:29:25;;;;;;;16.00;8.95;;;;;;;3.92;92.73;98092.28;5045412;28;20032;-84
2022/02/28 10:31:51;;;;;;;13.35;8.98;;;;;;;3.91;95.47;98085.22;5021760;28;20141;-84
2022/02/28 10:34:24;;;;;;;26.02;14.43;;;;;;;3.89;95.89;98089.72;5027023;28;20064;-84
2022/02/28 10:36:59;;;;;;;28.23;14.52;;;;;;;3.94;95.76;98093.09;5021291;28;20112;-85
2022/02/28 10:39:32;;;;;;;20.77;9.57;;;;;;;3.84;94.19;98084.53;5039056;28;20488;-85
2022/02/28 10:42:18;;;;;;;13.00;6.70;;;;;;;3.75;95.72;98079.47;5025599;28;20111;-85
2022/02/28 10:44:44;;;;;;;7.55;4.53;;;;;;;3.55;94.12;98084.44;5026916;28;20492;-83
2022/02/28 10:47:11;;;;;;;7.75;4.50;;;;;;;3.35;93.95;98076.16;5050322;28;20024;-85
2022/02/28 10:49:38;;;;;;;8.32;4.38;;;;;;;3.20;95.86;98080.03;5021812;28;20085;-86
2022/02/28 10:52:11;;;;;;;7.60;4.57;;;;;;;3.13;95.08;98077.56;5024180;28;20024;-86
2022/02/28 10:54:38;;;;;;;7.75;4.50;;;;;;;3.41;97.82;98080.41;5025961;28;20035;-85
2022/02/28 10:57:05;;;;;;;7.80;4.72;;;;;;;3.37;94.61;98073.44;5023206;28;20112;-86
2022/02/28 10:59:40;;;;;;;19.58;10.07;;;;;;;3.52;96.96;98073.06;5060438;28;20187;-85
2022/02/28 11:02:07;;;;;;;9.18;5.15;;;;;;;3.30;95.85;98067.44;5039248;28;20025;-86
2022/02/28 11:04:38;;;;;;;6.95;4.40;;;;;;;3.14;94.39;98055.50;5031980;28;20124;-85
2022/02/28 11:07:07;;;;;;;8.80;4.72;;;;;;;3.04;95.46;98061.94;5032743;28;20381;-85
2022/02/28 11:09:34;;;;;;;7.35;4.15;;;;;;;3.03;94.22;98073.41;5023510;28;20048;-86
2022/02/28 11:12:23;;;;;;;26.75;18.10;;;;;;;3.03;96.01;98081.34;5022748;28;20091;-86
2022/02/28 11:14:51;;;;;;;1.00;1.00;;;;;;;3.04;99.23;98064.59;5025502;28;20439;-85
2022/02/28 11:17:22;;;;;;;0.57;0.57;;;;;;;3.23;98.38;98073.81;5026559;28;20024;-85
2022/02/28 11:19:50;;;;;;;0.30;0.30;;;;;;;3.24;94.12;98080.81;5026405;28;20024;-86
2022/02/28 11:22:16;;;;;;;0.25;0.25;;;;;;;3.12;95.45;98073.19;5052451;28;20132;-87